Lontetree, Wyoming
Current Conditions -  °F | °C
As of 5:55 PM on Saturday 22 Nov 2014 (Local Time) from KFBR Reporting Station
Light Snow Light Snow  
Wind Chill: 21°   Ceiling: 2700
Heat Index: 32°   Visibility: 5mi
Dew Point: 32°   Wind: 17mph
Humidity: 99%   Direction: 260°W
Pressure: 29.8"   Gusts: 26mph
Location:  41.04°N, 110.17°W
Report Text: KFBR 230055Z AUTO 26015G23KT 5SM -SN SCT009 BKN027 OVC046 00/00 A2980 RMK AO2 T00020000
Loading
Personal Weather Stations






























Interactive Weather Map New forecast layout! Learn more

10-Day Weather Forecast

Advertisements
Track Severe Weather on mobile